Time;durP1;ratioP1;P1;durP2;ratioP2;P2;SDS_P1;SDS_P2;PMS_P1;PMS_P2;Temp;Humidity;BMP_temperature;BMP_pressure;BME280_temperature;BME280_humidity;BME280_pressure;Samples;Min_cycle;Max_cycle;Signal;HPM_P1;HPM_P2
2021/07/29 00:01:39;;;;;;;14.33;6.78;;;;;;;17.48;83.00;95519.81;1757620;82;21510;-60
2021/07/29 00:04:06;;;;;;;13.15;7.83;;;;;;;17.53;82.87;95514.27;1769235;80;21535;-60
2021/07/29 00:06:33;;;;;;;9.40;6.20;;;;;;;17.48;82.01;95514.95;1777779;81;20978;-60
2021/07/29 00:09:00;;;;;;;11.90;6.35;;;;;;;17.48;82.01;95514.95;1777852;81;20990;-60
2021/07/29 00:11:28;;;;;;;16.85;7.60;;;;;;;17.46;82.30;95518.16;1777512;81;20990;-60
2021/07/29 00:13:57;;;;;;;13.28;7.72;;;;;;;17.52;82.67;95524.08;1777526;81;21472;-60
2021/07/29 00:16:30;;;;;;;11.83;7.33;;;;;;;17.52;82.34;95521.41;1777340;81;21010;-60
2021/07/29 00:19:29;;;;;;;8.98;6.42;;;;;;;17.51;82.21;95518.36;1777628;81;20973;-60
2021/07/29 00:21:32;;;;;;;13.43;8.28;;;;;;;17.45;81.91;95523.97;1758812;81;20975;-60
2021/07/29 00:23:59;;;;;;;15.18;7.50;;;;;;;17.38;82.37;95523.85;1777823;81;21049;-60
2021/07/29 00:26:29;;;;;;;11.15;7.10;;;;;;;17.36;82.44;95524.42;1777490;80;21065;-61
2021/07/29 00:28:56;;;;;;;13.48;7.35;;;;;;;17.43;82.63;95516.50;1777848;80;21519;-60
2021/07/29 00:31:32;;;;;;;7.83;5.53;;;;;;;17.46;82.59;95524.38;1777666;81;21112;-60
2021/07/29 00:34:01;;;;;;;11.20;7.40;;;;;;;17.49;82.16;95520.23;1777613;81;20998;-60
2021/07/29 00:36:27;;;;;;;11.53;7.62;;;;;;;17.58;81.95;95518.06;1777800;81;21049;-61
2021/07/29 00:38:55;;;;;;;18.73;8.23;;;;;;;17.53;82.12;95516.46;1777987;80;20985;-60
2021/07/29 00:41:21;;;;;;;17.02;7.28;;;;;;;17.49;81.62;95514.04;1777784;80;21037;-60
2021/07/29 00:44:00;;;;;;;15.72;7.53;;;;;;;17.48;82.37;95510.48;1777798;81;21040;-60
2021/07/29 00:46:28;;;;;;;20.15;7.75;;;;;;;17.47;82.04;95507.91;1777813;80;21056;-61
2021/07/29 00:48:55;;;;;;;10.98;6.78;;;;;;;17.44;82.07;95502.25;1777692;81;21018;-60
2021/07/29 00:51:22;;;;;;;17.30;7.03;;;;;;;17.36;82.28;95513.75;1777777;80;20986;-60
2021/07/29 00:53:50;;;;;;;11.53;6.62;;;;;;;17.30;82.19;95511.34;1777765;80;21541;-60
2021/07/29 00:56:17;;;;;;;14.33;7.28;;;;;;;17.28;82.12;95510.07;1777669;80;21005;-60
2021/07/29 00:58:44;;;;;;;10.43;7.92;;;;;;;17.29;82.65;95517.63;1777902;81;20950;-60
2021/07/29 01:01:11;;;;;;;14.10;9.25;;;;;;;17.29;82.65;95517.63;1777594;81;21018;-60
2021/07/29 01:03:40;;;;;;;12.65;7.97;;;;;;;17.25;82.59;95527.55;1777562;80;21006;-60
2021/07/29 01:06:07;;;;;;;14.45;8.35;;;;;;;17.19;82.47;95525.66;1777899;81;20997;-60
2021/07/29 01:09:10;;;;;;;12.60;8.83;;;;;;;17.19;82.47;95525.66;1777995;81;20985;-60
2021/07/29 01:11:38;;;;;;;18.12;8.63;;;;;;;17.16;82.95;95540.00;1777777;80;21049;-60
2021/07/29 01:14:06;;;;;;;13.08;8.23;;;;;;;17.16;82.71;95537.77;1777875;81;21530;-60
2021/07/29 01:16:34;;;;;;;13.38;8.28;;;;;;;17.10;83.39;95533.59;1777387;80;21010;-60
2021/07/29 01:19:03;;;;;;;12.18;8.45;;;;;;;17.04;83.30;95537.41;1777575;81;20974;-61
2021/07/29 01:21:31;;;;;;;13.58;8.73;;;;;;;17.02;83.25;95533.94;1777846;81;21522;-61
2021/07/29 01:23:58;;;;;;;16.05;9.08;;;;;;;16.96;83.36;95525.34;1777759;81;21002;-60
2021/07/29 01:26:29;;;;;;;13.60;8.43;;;;;;;16.96;83.36;95525.34;1777606;81;21014;-60
2021/07/29 01:28:57;;;;;;;13.75;8.08;;;;;;;16.97;83.39;95527.95;1777821;80;20994;-61
2021/07/29 01:31:26;;;;;;;11.38;7.53;;;;;;;16.91;83.27;95527.34;1777667;81;21468;-60
2021/07/29 01:33:55;;;;;;;13.38;7.37;;;;;;;16.83;83.19;95524.58;1777784;81;21069;-60
2021/07/29 01:36:23;;;;;;;13.78;7.08;;;;;;;16.84;83.59;95522.77;1777452;81;21007;-61
2021/07/29 01:38:50;;;;;;;9.15;6.50;;;;;;;16.84;83.59;95522.77;1777686;80;20954;-60
2021/07/29 01:41:16;;;;;;;14.07;7.10;;;;;;;16.86;83.07;95508.92;1734092;81;20994;-60
2021/07/29 01:43:43;;;;;;;9.80;7.65;;;;;;;16.85;83.14;95513.36;1777750;80;21500;-61
2021/07/29 01:46:09;;;;;;;13.93;8.08;;;;;;;16.89;83.49;95517.24;1777800;80;21050;-60
2021/07/29 01:48:36;;;;;;;16.35;7.97;;;;;;;16.90;83.80;95509.63;1777871;80;21005;-60
2021/07/29 01:51:02;;;;;;;11.97;7.40;;;;;;;17.00;83.90;95503.81;1777510;80;21010;-60
2021/07/29 01:53:29;;;;;;;11.08;7.08;;;;;;;17.11;83.84;95491.80;1777628;81;21069;-61
2021/07/29 01:55:55;;;;;;;13.10;7.10;;;;;;;17.12;83.05;95474.88;1777926;80;21009;-61
2021/07/29 01:58:22;;;;;;;16.25;7.80;;;;;;;17.12;83.05;95474.88;1777713;81;21070;-60
2021/07/29 02:00:52;;;;;;;8.78;6.28;;;;;;;17.09;82.47;95474.55;1777243;81;21026;-60
2021/07/29 02:03:19;;;;;;;10.50;6.50;;;;;;;17.09;82.47;95474.55;1777738;80;21065;-61
2021/07/29 02:05:45;;;;;;;11.63;6.35;;;;;;;16.86;82.64;95487.59;1787627;80;20985;-60
2021/07/29 02:08:11;;;;;;;16.00;7.78;;;;;;;16.86;82.64;95487.59;1787847;80;20989;-60
2021/07/29 02:10:38;;;;;;;12.50;8.70;;;;;;;16.87;82.97;95482.66;1787393;80;20970;-60
2021/07/29 02:13:05;;;;;;;17.85;9.68;;;;;;;16.92;83.20;95499.77;1787475;80;21024;-60
2021/07/29 02:15:32;;;;;;;17.85;9.25;;;;;;;16.97;83.40;95492.44;1787253;80;21006;-60
2021/07/29 02:18:00;;;;;;;10.10;8.08;;;;;;;16.98;83.59;95491.02;1787709;80;21033;-61
2021/07/29 02:20:28;;;;;;;16.65;8.00;;;;;;;17.03;83.30;95491.70;1787622;80;21012;-61
2021/07/29 02:22:54;;;;;;;10.58;6.33;;;;;;;17.02;82.65;95493.09;1782807;80;21052;-61
2021/07/29 02:25:21;;;;;;;13.00;6.35;;;;;;;17.03;82.59;95485.48;1787717;80;21023;-61
2021/07/29 02:27:48;;;;;;;14.68;6.55;;;;;;;16.99;83.04;95488.77;1787615;80;20997;-60
2021/07/29 02:30:15;;;;;;;12.43;7.50;;;;;;;17.06;83.33;95496.03;1752318;80;20970;-60
2021/07/29 02:32:41;;;;;;;14.18;7.42;;;;;;;17.06;83.33;95496.03;1787605;80;20990;-60
2021/07/29 02:35:09;;;;;;;14.05;7.42;;;;;;;17.07;83.58;95503.08;1787568;80;21057;-60
2021/07/29 02:37:36;;;;;;;12.20;7.10;;;;;;;17.03;83.86;95497.48;1787617;80;20970;-60
2021/07/29 02:40:03;;;;;;;9.78;6.85;;;;;;;16.99;83.73;95495.91;1787586;80;21546;-60
2021/07/29 02:42:30;;;;;;;16.15;6.80;;;;;;;17.08;83.57;95500.80;1787475;80;21008;-60
2021/07/29 02:44:56;;;;;;;13.22;7.10;;;;;;;17.07;83.25;95511.94;1788026;80;21017;-61
2021/07/29 02:47:22;;;;;;;11.50;6.92;;;;;;;17.14;83.28;95510.34;1787639;80;21427;-60
2021/07/29 02:49:49;;;;;;;10.58;7.35;;;;;;;17.17;83.20;95507.05;1787433;80;20938;-60
2021/07/29 02:52:15;;;;;;;11.22;7.20;;;;;;;17.15;82.65;95503.59;1787772;80;21056;-60
2021/07/29 02:54:41;;;;;;;10.45;6.87;;;;;;;17.08;83.24;95501.69;1787721;80;20958;-60
2021/07/29 02:57:08;;;;;;;10.88;6.78;;;;;;;17.08;83.24;95501.69;1787264;80;21025;-60
2021/07/29 02:59:35;;;;;;;10.58;7.10;;;;;;;17.10;83.29;95513.59;1787558;80;21041;-60
2021/07/29 03:02:01;;;;;;;16.15;7.25;;;;;;;17.16;83.73;95510.66;1787251;80;21026;-62
2021/07/29 03:04:28;;;;;;;10.95;6.87;;;;;;;17.23;83.44;95512.56;1790571;80;21127;-60
2021/07/29 03:06:58;;;;;;;17.77;7.25;;;;;;;17.29;82.94;95498.97;1764678;80;20993;-61
2021/07/29 03:09:22;;;;;;;11.97;7.28;;;;;;;17.36;83.10;95502.19;1796375;79;21056;-61
2021/07/29 03:11:49;;;;;;;10.72;7.08;;;;;;;17.39;82.65;95490.93;1765065;80;21032;-61
2021/07/29 03:14:17;;;;;;;10.40;7.03;;;;;;;17.37;82.70;95483.46;1796032;80;21539;-61
2021/07/29 03:16:43;;;;;;;13.58;6.50;;;;;;;17.49;82.80;95493.56;1796104;80;21483;-61
2021/07/29 03:19:10;;;;;;;9.48;7.22;;;;;;;17.59;82.81;95494.43;1796414;80;21001;-61
2021/07/29 03:21:36;;;;;;;10.35;6.62;;;;;;;17.65;82.50;95480.34;1795959;79;21013;-60
2021/07/29 03:24:04;;;;;;;11.00;7.28;;;;;;;17.65;82.50;95480.34;1796272;79;21057;-60
2021/07/29 03:26:30;;;;;;;12.75;7.10;;;;;;;17.72;81.89;95492.93;1796332;80;21407;-60
2021/07/29 03:28:56;;;;;;;15.32;7.25;;;;;;;17.46;81.38;95491.05;1796374;80;20989;-61
2021/07/29 03:31:23;;;;;;;12.28;6.83;;;;;;;17.46;81.38;95491.05;1796100;80;21009;-60
2021/07/29 03:33:49;;;;;;;13.93;7.05;;;;;;;17.32;81.96;95485.95;1796203;80;20997;-60
2021/07/29 03:36:16;;;;;;;12.28;6.80;;;;;;;17.32;81.96;95485.95;1796334;80;21521;-61
2021/07/29 03:38:42;;;;;;;12.35;7.70;;;;;;;17.34;82.09;95492.05;1796226;80;20973;-60
2021/07/29 03:41:10;;;;;;;10.90;7.58;;;;;;;17.33;82.21;95492.53;1796350;80;20966;-61
2021/07/29 03:43:37;;;;;;;11.97;8.48;;;;;;;17.24;82.15;95491.65;1796179;79;20993;-61
2021/07/29 03:46:03;;;;;;;11.08;8.10;;;;;;;17.24;82.76;95495.64;1796028;79;20993;-61
2021/07/29 03:48:30;;;;;;;11.18;8.20;;;;;;;17.33;82.85;95487.20;1796296;80;21432;-61
2021/07/29 03:50:56;;;;;;;13.62;8.50;;;;;;;17.33;82.85;95487.20;1796313;80;21000;-60
2021/07/29 03:53:23;;;;;;;14.03;9.73;;;;;;;17.33;82.42;95489.00;1796194;80;21033;-60
2021/07/29 03:55:49;;;;;;;13.38;8.48;;;;;;;17.32;82.37;95501.95;1796526;80;20972;-60
2021/07/29 03:58:16;;;;;;;12.85;8.23;;;;;;;17.34;82.46;95508.05;1796087;80;21009;-61
2021/07/29 04:00:43;;;;;;;12.13;8.50;;;;;;;17.25;82.56;95507.55;1796397;80;21514;-60
2021/07/29 04:03:09;;;;;;;13.03;8.28;;;;;;;17.14;82.35;95495.67;1796328;80;21001;-61
2021/07/29 04:05:37;;;;;;;16.20;8.88;;;;;;;17.02;82.95;95498.42;1789789;80;21052;-60
2021/07/29 04:08:05;;;;;;;17.32;9.95;;;;;;;17.02;82.95;95498.42;1787486;80;21013;-61
2021/07/29 04:10:31;;;;;;;16.37;12.98;;;;;;;16.99;83.55;95502.09;1787794;80;20966;-60
2021/07/29 04:12:58;;;;;;;15.30;11.45;;;;;;;17.03;83.52;95504.14;1787388;80;21024;-60
2021/07/29 04:15:25;;;;;;;15.20;8.70;;;;;;;17.14;82.82;95510.34;1787711;80;20958;-61
2021/07/29 04:17:51;;;;;;;13.50;8.68;;;;;;;17.14;82.82;95510.34;1787681;80;21036;-60
2021/07/29 04:20:17;;;;;;;15.03;10.30;;;;;;;17.16;83.77;95505.34;1787712;80;21013;-61
2021/07/29 04:22:45;;;;;;;15.80;12.65;;;;;;;17.16;83.77;95505.34;1787791;80;21049;-60
2021/07/29 04:25:11;;;;;;;15.32;10.08;;;;;;;17.21;84.56;95523.31;1787738;80;21077;-60
2021/07/29 04:27:38;;;;;;;14.58;10.58;;;;;;;17.30;84.50;95523.34;1787622;80;20985;-60
2021/07/29 04:30:06;;;;;;;16.52;11.90;;;;;;;17.34;84.93;95500.05;1787837;80;20969;-60
2021/07/29 04:32:36;;;;;;;18.60;11.33;;;;;;;17.48;84.77;95505.14;1787514;80;21021;-61
2021/07/29 04:35:04;;;;;;;23.02;13.95;;;;;;;17.57;84.63;95500.34;1787742;80;20997;-61
2021/07/29 04:37:31;;;;;;;19.05;12.63;;;;;;;17.67;84.36;95492.28;1787895;80;21005;-61
2021/07/29 04:39:57;;;;;;;16.42;10.55;;;;;;;17.83;84.37;95489.28;1788032;80;20981;-61
2021/07/29 04:42:24;;;;;;;14.33;10.55;;;;;;;17.97;84.52;95490.41;1787652;80;21496;-60
2021/07/29 04:44:50;;;;;;;14.43;10.25;;;;;;;18.12;84.38;95488.34;1787946;80;20974;-60
2021/07/29 04:47:17;;;;;;;17.52;8.90;;;;;;;18.28;83.97;95485.75;1787191;80;21515;-62
2021/07/29 04:49:43;;;;;;;19.02;10.05;;;;;;;18.41;83.51;95481.51;1787530;80;21440;-60
2021/07/29 04:52:10;;;;;;;15.28;9.00;;;;;;;18.55;83.37;95487.49;1787537;80;21049;-60
2021/07/29 04:54:36;;;;;;;13.55;8.78;;;;;;;18.63;83.17;95487.95;1787666;80;21009;-60
2021/07/29 04:57:04;;;;;;;16.87;8.28;;;;;;;18.72;82.67;95486.15;1787763;80;21499;-60
2021/07/29 04:59:30;;;;;;;13.80;8.13;;;;;;;18.87;82.54;95491.64;1787728;80;21466;-60
2021/07/29 05:01:57;;;;;;;15.68;8.65;;;;;;;18.98;82.57;95491.95;1787022;80;21005;-60
2021/07/29 05:04:23;;;;;;;19.35;8.68;;;;;;;19.14;82.93;95495.52;1786069;80;21032;-60
2021/07/29 05:06:49;;;;;;;15.95;8.13;;;;;;;19.33;83.00;95493.20;1777803;80;21026;-60
2021/07/29 05:09:16;;;;;;;16.42;8.50;;;;;;;19.51;82.81;95494.00;1777389;80;21448;-60
2021/07/29 05:11:42;;;;;;;14.90;7.95;;;;;;;19.71;82.81;95491.11;1777957;80;21004;-60
2021/07/29 05:14:08;;;;;;;19.00;8.50;;;;;;;19.85;81.65;95489.83;1777866;81;21028;-60
2021/07/29 05:16:34;;;;;;;16.27;7.80;;;;;;;19.90;80.89;95496.27;1777542;80;21036;-61
2021/07/29 05:19:01;;;;;;;15.72;8.38;;;;;;;20.02;81.01;95501.41;1777521;81;21005;-60
2021/07/29 05:21:29;;;;;;;22.75;8.30;;;;;;;20.15;80.93;95504.24;1777518;81;21049;-60
2021/07/29 05:23:56;;;;;;;16.15;8.08;;;;;;;20.32;81.09;95506.80;1734616;81;21108;-60
2021/07/29 05:26:23;;;;;;;16.10;8.75;;;;;;;20.47;80.54;95507.24;1777555;80;20998;-60
2021/07/29 05:28:49;;;;;;;12.78;8.95;;;;;;;20.59;80.29;95507.03;1778066;81;21002;-60
2021/07/29 05:31:16;;;;;;;17.32;9.58;;;;;;;20.73;79.91;95508.39;1777544;80;21025;-60
2021/07/29 05:33:42;;;;;;;15.03;9.58;;;;;;;20.89;79.39;95502.98;1777496;80;21026;-60
2021/07/29 05:36:08;;;;;;;19.90;10.50;;;;;;;21.04;79.46;95496.28;1777793;80;20950;-60
2021/07/29 05:38:35;;;;;;;19.57;10.15;;;;;;;21.19;79.25;95498.02;1777634;80;21004;-60
2021/07/29 05:41:09;;;;;;;22.20;11.12;;;;;;;21.30;78.35;95503.59;1777885;81;21006;-60
2021/07/29 05:43:39;;;;;;;25.08;11.08;;;;;;;21.41;78.81;95501.60;1777566;81;21009;-60
2021/07/29 05:46:13;;;;;;;20.60;10.98;;;;;;;21.58;78.45;95501.89;1777872;81;21045;-60
2021/07/29 05:48:40;;;;;;;23.73;12.18;;;;;;;21.65;78.27;95505.05;1777958;81;21002;-60
2021/07/29 05:51:07;;;;;;;21.48;12.13;;;;;;;21.75;78.02;95497.65;1777792;80;21515;-60
2021/07/29 05:53:34;;;;;;;30.72;12.85;;;;;;;21.87;77.79;95503.17;1777737;81;20978;-60
2021/07/29 05:56:01;;;;;;;34.05;13.13;;;;;;;21.91;77.15;95500.20;1734481;81;21061;-60
2021/07/29 05:58:28;;;;;;;24.75;11.12;;;;;;;21.93;75.80;95498.77;1777613;80;21014;-60
2021/07/29 06:00:54;;;;;;;23.35;11.35;;;;;;;21.97;76.14;95499.81;1778050;80;20974;-60
2021/07/29 06:03:21;;;;;;;18.15;9.70;;;;;;;22.02;76.23;95489.63;1777418;81;21558;-60
2021/07/29 06:05:47;;;;;;;20.35;10.78;;;;;;;22.08;75.59;95488.84;1783515;80;21021;-60
2021/07/29 06:08:14;;;;;;;16.20;9.88;;;;;;;22.24;76.04;95485.55;1787423;80;21009;-60
2021/07/29 06:10:40;;;;;;;20.82;10.13;;;;;;;22.50;75.87;95481.09;1787908;80;21016;-60
2021/07/29 06:13:07;;;;;;;17.57;8.90;;;;;;;22.81;75.36;95492.48;1787655;80;21057;-60
2021/07/29 06:15:33;;;;;;;14.75;8.93;;;;;;;23.10;75.48;95485.09;1787711;80;21484;-60
2021/07/29 06:18:01;;;;;;;12.78;8.23;;;;;;;23.35;74.65;95481.53;1787783;80;20970;-60
2021/07/29 06:20:29;;;;;;;13.43;7.67;;;;;;;23.50;74.35;95478.23;1787274;80;21009;-60
2021/07/29 06:22:56;;;;;;;14.85;8.20;;;;;;;23.69;72.69;95480.48;1787561;80;21053;-60
2021/07/29 06:25:23;;;;;;;13.98;8.45;;;;;;;23.78;73.11;95486.56;1787470;80;21518;-60
2021/07/29 06:27:50;;;;;;;17.87;9.95;;;;;;;23.81;73.03;95484.98;1787701;80;20992;-61
2021/07/29 06:30:17;;;;;;;23.83;9.93;;;;;;;23.81;73.04;95478.74;1787741;80;21018;-60
2021/07/29 06:32:44;;;;;;;23.90;10.38;;;;;;;23.82;72.41;95481.83;1787156;80;20997;-60
2021/07/29 06:35:11;;;;;;;34.03;11.43;;;;;;;23.86;73.04;95482.81;1787721;80;20993;-60
2021/07/29 06:37:38;;;;;;;30.50;11.78;;;;;;;23.94;73.15;95483.63;1787802;80;20966;-60
2021/07/29 06:40:07;;;;;;;28.85;11.45;;;;;;;23.96;73.18;95480.31;1787220;80;21511;-60
2021/07/29 06:42:34;;;;;;;27.42;11.80;;;;;;;23.96;73.04;95480.31;1787591;80;21489;-61
2021/07/29 06:45:00;;;;;;;31.70;11.68;;;;;;;23.94;73.11;95482.28;1787704;80;21002;-60
2021/07/29 06:47:27;;;;;;;25.82;11.85;;;;;;;24.06;73.38;95477.31;1787081;80;21023;-61
2021/07/29 06:49:54;;;;;;;38.75;11.48;;;;;;;24.25;73.49;95479.52;1787368;80;21005;-60
2021/07/29 06:52:20;;;;;;;25.95;11.50;;;;;;;24.38;73.28;95477.61;1787756;80;20977;-61
2021/07/29 06:54:47;;;;;;;38.88;11.75;;;;;;;24.57;72.83;95478.48;1787429;80;21014;-61
2021/07/29 06:57:14;;;;;;;28.55;11.75;;;;;;;24.54;72.17;95478.69;1787827;80;20993;-61
2021/07/29 06:59:41;;;;;;;28.15;11.33;;;;;;;24.56;72.18;95478.58;1787452;80;21018;-61
2021/07/29 07:02:10;;;;;;;27.87;10.40;;;;;;;24.73;72.43;95480.86;1787191;80;21511;-60
2021/07/29 07:04:37;;;;;;;23.10;10.20;;;;;;;24.93;72.04;95471.72;1787251;80;21041;-62
2021/07/29 07:07:04;;;;;;;31.27;9.38;;;;;;;25.12;71.96;95472.48;1787343;80;21052;-61
2021/07/29 07:09:30;;;;;;;25.35;10.38;;;;;;;25.25;71.67;95467.89;1787447;80;21006;-61
2021/07/29 07:11:57;;;;;;;20.23;9.18;;;;;;;25.40;70.24;95465.79;1787984;80;20997;-61
2021/07/29 07:14:24;;;;;;;21.70;8.83;;;;;;;25.55;70.46;95461.89;1787327;80;21523;-60
2021/07/29 07:16:51;;;;;;;22.40;8.78;;;;;;;25.73;70.34;95469.00;1787368;80;21044;-61
2021/07/29 07:19:17;;;;;;;24.12;9.30;;;;;;;25.86;69.21;95455.38;1787495;80;20994;-61
2021/07/29 07:21:44;;;;;;;28.50;8.90;;;;;;;25.94;68.03;95461.02;1787606;80;21045;-61
2021/07/29 07:24:10;;;;;;;28.75;8.83;;;;;;;26.09;69.06;95458.90;1787593;80;21451;-61
2021/07/29 07:26:37;;;;;;;24.63;8.08;;;;;;;26.27;69.11;95464.13;1787355;80;21018;-61
2021/07/29 07:29:05;;;;;;;26.07;8.93;;;;;;;26.45;68.53;95452.25;1787185;80;21009;-60
2021/07/29 07:31:31;;;;;;;26.42;9.50;;;;;;;26.66;65.80;95454.16;1787372;80;21004;-60
2021/07/29 07:34:00;;;;;;;18.70;7.92;;;;;;;26.79;64.30;95449.91;1787608;80;20993;-61
2021/07/29 07:36:26;;;;;;;23.07;9.03;;;;;;;26.89;61.97;95449.52;1787982;80;21040;-61
2021/07/29 07:38:53;;;;;;;18.98;7.87;;;;;;;27.06;64.65;95450.25;1788147;80;20969;-60
2021/07/29 07:41:20;;;;;;;22.00;8.55;;;;;;;27.22;64.60;95443.56;1787710;80;21567;-61
2021/07/29 07:43:47;;;;;;;18.80;8.60;;;;;;;27.36;63.61;95441.84;1787373;80;21005;-60
2021/07/29 07:46:14;;;;;;;23.35;8.03;;;;;;;27.46;62.26;95439.17;1787757;80;21475;-60
2021/07/29 07:48:40;;;;;;;19.20;7.80;;;;;;;27.53;62.53;95445.27;1787728;80;21028;-60
2021/07/29 07:51:07;;;;;;;21.30;8.05;;;;;;;27.61;61.49;95441.88;1787747;80;20974;-60
2021/07/29 07:53:34;;;;;;;19.37;8.00;;;;;;;27.65;60.68;95446.05;1787438;80;21053;-60
2021/07/29 07:56:05;;;;;;;19.55;7.65;;;;;;;27.76;61.00;95441.86;1788096;80;20965;-60
2021/07/29 07:58:33;;;;;;;24.72;7.95;;;;;;;27.94;60.09;95442.59;1787800;80;21006;-60
2021/07/29 08:01:04;;;;;;;12.95;5.78;;;;;;;27.96;59.28;95438.75;1787897;80;21017;-60
2021/07/29 08:03:30;;;;;;;16.32;6.42;;;;;;;27.99;47.33;95445.75;1787718;80;21097;-60
2021/07/29 08:06:03;;;;;;;11.35;5.35;;;;;;;28.10;46.02;95437.98;1787776;80;21037;-60
2021/07/29 08:08:30;;;;;;;16.52;5.65;;;;;;;28.13;48.85;95437.23;1787622;80;21057;-60
2021/07/29 08:10:56;;;;;;;14.75;5.60;;;;;;;28.26;43.75;95439.67;1787547;80;21093;-60
2021/07/29 08:13:23;;;;;;;17.27;5.40;;;;;;;28.42;46.34;95435.04;1787543;80;21017;-60
2021/07/29 08:15:50;;;;;;;13.72;5.60;;;;;;;28.53;44.85;95432.74;1787946;80;21019;-60
2021/07/29 08:18:16;;;;;;;13.65;5.05;;;;;;;28.58;45.52;95435.37;1787689;80;21013;-60
2021/07/29 08:20:44;;;;;;;11.80;5.33;;;;;;;28.64;42.21;95434.80;1787824;80;21005;-60
2021/07/29 08:23:11;;;;;;;13.45;5.15;;;;;;;28.64;40.28;95432.08;1787793;80;21563;-60
2021/07/29 08:25:38;;;;;;;12.43;5.45;;;;;;;28.74;39.38;95429.88;1787770;80;21010;-60
2021/07/29 08:28:05;;;;;;;8.93;4.67;;;;;;;28.89;43.15;95433.35;1787817;80;21510;-60
2021/07/29 08:30:32;;;;;;;14.03;4.87;;;;;;;28.96;40.98;95433.64;1787731;80;20974;-61
2021/07/29 08:33:00;;;;;;;6.58;3.83;;;;;;;29.01;39.21;95436.77;1787778;80;20993;-61
2021/07/29 08:35:27;;;;;;;13.05;4.87;;;;;;;29.11;38.62;95437.64;1787676;80;21059;-60
2021/07/29 08:37:54;;;;;;;12.78;5.10;;;;;;;29.25;41.44;95431.39;1787554;80;21460;-61
2021/07/29 08:40:20;;;;;;;7.53;4.25;;;;;;;29.38;39.41;95435.98;1787772;80;20950;-60
2021/07/29 08:42:48;;;;;;;12.05;4.75;;;;;;;29.43;37.43;95443.20;1787432;80;21025;-60
2021/07/29 08:45:15;;;;;;;12.25;5.05;;;;;;;29.47;36.72;95441.06;1787855;80;21012;-61
2021/07/29 08:47:44;;;;;;;12.07;4.70;;;;;;;29.55;36.16;95437.09;1787469;80;21499;-61
2021/07/29 08:50:12;;;;;;;13.75;5.00;;;;;;;29.70;38.01;95442.42;1787748;80;21447;-60
2021/07/29 08:52:39;;;;;;;12.60;4.47;;;;;;;29.63;35.49;95451.30;1787823;80;20982;-60
2021/07/29 08:55:07;;;;;;;9.28;4.85;;;;;;;29.23;33.77;95446.98;1782815;80;21037;-60
2021/07/29 08:57:38;;;;;;;22.17;6.03;;;;;;;29.38;34.66;95438.70;1787744;80;21447;-60
2021/07/29 09:00:09;;;;;;;11.53;4.50;;;;;;;29.57;36.39;95445.11;1782597;80;21025;-61
2021/07/29 09:02:36;;;;;;;9.83;4.10;;;;;;;29.79;36.98;95437.08;1787935;80;21399;-60
2021/07/29 09:05:14;;;;;;;11.35;4.58;;;;;;;29.90;33.79;95439.62;1787533;80;21002;-60
2021/07/29 09:07:42;;;;;;;11.00;4.60;;;;;;;30.10;35.55;95442.59;1787850;80;21045;-60
2021/07/29 09:10:21;;;;;;;9.88;4.92;;;;;;;30.23;34.37;95440.01;1788076;80;21459;-60
2021/07/29 09:13:15;;;;;;;10.45;4.75;;;;;;;30.14;32.58;95445.88;1787727;80;21554;-61
2021/07/29 09:15:44;;;;;;;10.23;4.62;;;;;;;30.11;35.89;95435.27;1787705;80;20998;-60
2021/07/29 09:18:21;;;;;;;12.00;4.95;;;;;;;30.29;32.51;95439.41;1787288;80;21044;-61
2021/07/29 09:20:45;;;;;;;12.23;5.25;;;;;;;30.34;33.28;95454.78;1786387;80;21128;-61
2021/07/29 09:23:21;;;;;;;10.90;5.15;;;;;;;30.38;33.77;95446.16;1787656;80;21025;-61
2021/07/29 09:26:01;;;;;;;11.08;5.15;;;;;;;30.43;32.47;95447.58;1752161;80;21013;-61
2021/07/29 09:28:39;;;;;;;11.43;4.70;;;;;;;30.38;31.90;95445.31;1787734;80;21016;-61
2021/07/29 09:31:19;;;;;;;14.90;5.20;;;;;;;30.49;33.37;95442.37;1787716;80;20982;-61
2021/07/29 09:34:02;;;;;;;10.88;4.37;;;;;;;30.74;33.16;95456.21;1787626;80;21025;-60
2021/07/29 09:36:32;;;;;;;9.50;5.30;;;;;;;30.47;32.56;95455.28;1787647;80;21448;-61
2021/07/29 09:39:19;;;;;;;13.20;5.22;;;;;;;30.53;34.04;95451.08;1787703;80;20946;-61
2021/07/29 09:41:47;;;;;;;14.80;5.72;;;;;;;30.52;33.19;95451.59;1787912;80;20993;-60
2021/07/29 09:44:15;;;;;;;10.75;5.10;;;;;;;30.69;33.17;95463.48;1787540;80;21064;-61
2021/07/29 09:46:43;;;;;;;13.30;5.70;;;;;;;30.47;33.56;95458.01;1787684;80;20974;-60
2021/07/29 09:49:11;;;;;;;13.10;6.53;;;;;;;30.28;33.59;95452.17;1787496;80;20970;-61
2021/07/29 09:51:39;;;;;;;9.98;5.47;;;;;;;30.47;36.61;95452.56;1787769;80;21440;-60
2021/07/29 09:54:08;;;;;;;14.15;6.17;;;;;;;30.77;37.18;95454.53;1787733;80;21021;-61
2021/07/29 09:56:34;;;;;;;8.33;5.75;;;;;;;30.92;36.99;95451.66;1787595;80;20974;-61
2021/07/29 09:59:03;;;;;;;11.03;5.17;;;;;;;30.78;34.31;95448.94;1787478;80;20970;-60
2021/07/29 10:01:31;;;;;;;12.43;5.30;;;;;;;30.59;35.01;95455.41;1787672;80;20977;-60
2021/07/29 10:04:00;;;;;;;15.98;6.30;;;;;;;30.30;34.67;95447.95;1787349;80;21022;-61
2021/07/29 10:06:28;;;;;;;13.60;5.85;;;;;;;30.34;35.99;95456.14;1782655;80;21022;-61
2021/07/29 10:09:03;;;;;;;13.18;6.05;;;;;;;30.46;36.40;95449.47;1787627;80;21001;-61
2021/07/29 10:11:34;;;;;;;13.50;6.22;;;;;;;30.46;36.98;95445.39;1787677;80;21028;-61
2021/07/29 10:14:00;;;;;;;10.55;6.08;;;;;;;30.67;36.18;95447.83;1787844;80;21029;-60
2021/07/29 10:16:48;;;;;;;17.55;6.47;;;;;;;30.77;37.23;95454.53;1782971;80;21033;-61
2021/07/29 10:19:16;;;;;;;10.93;6.12;;;;;;;30.67;36.34;95455.12;1787517;80;21520;-60
2021/07/29 10:21:44;;;;;;;11.68;6.67;;;;;;;30.80;37.93;95450.16;1787660;80;21001;-61
2021/07/29 10:24:13;;;;;;;12.35;6.92;;;;;;;31.04;38.94;95449.53;1787597;80;20982;-61
2021/07/29 10:27:02;;;;;;;10.20;6.17;;;;;;;31.43;38.99;95447.82;1787660;80;20981;-60
2021/07/29 10:29:31;;;;;;;14.10;6.50;;;;;;;31.53;38.54;95441.75;1760722;80;21005;-61
2021/07/29 10:32:10;;;;;;;14.95;6.60;;;;;;;31.54;35.73;95460.32;1787548;80;20993;-61
2021/07/29 10:34:38;;;;;;;9.65;6.25;;;;;;;31.51;37.40;95464.23;1787378;80;21017;-61
2021/07/29 10:37:09;;;;;;;13.10;5.87;;;;;;;31.40;36.10;95457.17;1787706;80;21005;-61
2021/07/29 10:40:00;;;;;;;5.72;4.92;;;;;;;31.32;34.73;95450.25;1787795;80;20970;-61
2021/07/29 10:42:29;;;;;;;12.05;6.00;;;;;;;31.18;35.11;95459.02;1787939;80;21495;-61
2021/07/29 10:44:57;;;;;;;14.63;5.78;;;;;;;31.02;38.28;95456.52;1787628;80;21428;-60
2021/07/29 10:47:40;;;;;;;12.30;6.10;;;;;;;31.10;37.38;95463.02;1787730;80;20970;-61
2021/07/29 10:50:10;;;;;;;13.38;6.53;;;;;;;31.14;37.36;95465.80;1787154;80;21037;-61
2021/07/29 10:52:38;;;;;;;11.65;6.50;;;;;;;30.95;38.08;95462.24;1787669;80;21009;-60
2021/07/29 10:55:10;;;;;;;15.10;6.47;;;;;;;31.29;41.24;95470.17;1752351;80;21006;-61
2021/07/29 10:57:36;;;;;;;9.58;6.17;;;;;;;31.56;39.07;95467.84;1787855;80;21021;-60
2021/07/29 11:00:05;;;;;;;8.43;5.15;;;;;;;31.34;39.40;95466.45;1787558;80;21006;-60
2021/07/29 11:02:49;;;;;;;12.45;6.37;;;;;;;31.30;37.81;95459.59;1787848;80;20987;-60
2021/07/29 11:05:20;;;;;;;10.65;6.20;;;;;;;31.45;39.92;95460.28;1787386;80;20982;-61
2021/07/29 11:07:44;;;;;;;14.85;5.80;;;;;;;31.68;39.50;95467.41;1786728;80;21468;-61
2021/07/29 11:10:16;;;;;;;11.73;6.45;;;;;;;31.69;37.25;95461.44;1787519;80;21009;-61
2021/07/29 11:12:48;;;;;;;13.28;5.87;;;;;;;31.75;37.64;95459.92;1788112;80;20973;-61
2021/07/29 11:15:16;;;;;;;10.43;6.15;;;;;;;31.64;37.13;95470.61;1787425;80;21009;-60
2021/07/29 11:17:43;;;;;;;12.35;6.35;;;;;;;31.42;39.65;95463.30;1782753;80;21018;-60
2021/07/29 11:20:10;;;;;;;10.93;5.25;;;;;;;31.39;38.67;95467.72;1787376;80;21022;-61
2021/07/29 11:22:47;;;;;;;9.13;5.33;;;;;;;31.43;37.95;95456.84;1787789;80;20954;-60
2021/07/29 11:25:15;;;;;;;8.93;5.47;;;;;;;31.28;37.27;95472.05;1787596;80;21017;-60
2021/07/29 11:27:42;;;;;;;8.70;5.28;;;;;;;31.32;38.28;95461.16;1787742;80;20978;-61
2021/07/29 11:30:12;;;;;;;11.28;5.40;;;;;;;31.34;37.74;95452.31;1787618;80;20997;-61